Time;durP1;ratioP1;P1;durP2;ratioP2;P2;SDS_P1;SDS_P2;PMS_P1;PMS_P2;Temp;Humidity;BMP_temperature;BMP_pressure;BME280_temperature;BME280_humidity;BME280_pressure;Samples;Min_cycle;Max_cycle;Signal;HPM_P1;HPM_P2
2022/12/14 00:01:41;;;;;;;28.43;18.73;;;;;;;;;;4969083;28;20266;-61
2022/12/14 00:04:15;;;;;;;35.10;19.93;;;;;;;;;;4996217;28;20253;-60
2022/12/14 00:06:42;;;;;;;30.20;18.40;;;;;;;;;;4955993;28;20746;-61
2022/12/14 00:09:10;;;;;;;30.70;19.33;;;;;;;;;;4947689;28;20218;-60
2022/12/14 00:11:37;;;;;;;29.47;17.53;;;;;;;;;;4945720;28;20236;-60
2022/12/14 00:14:05;;;;;;;32.17;18.33;;;;;;;;;;4950445;28;20367;-61
2022/12/14 00:16:33;;;;;;;26.77;18.40;;;;;;;;;;4960460;28;20231;-61
2022/12/14 00:19:01;;;;;;;29.00;19.07;;;;;;;;;;4963177;28;20244;-60
2022/12/14 00:21:29;;;;;;;29.70;19.40;;;;;;;;;;4966588;28;20303;-60
2022/12/14 00:23:58;;;;;;;29.33;18.60;;;;;;;;;;4966856;28;20290;-59
2022/12/14 00:26:30;;;;;;;34.87;20.20;;;;;;;;;;4967284;28;20207;-60
2022/12/14 00:28:58;;;;;;;27.90;17.87;;;;;;;;;;4965202;28;20208;-60
2022/12/14 00:31:25;;;;;;;35.00;19.47;;;;;;;;;;4968273;28;20338;-62
2022/12/14 00:33:53;;;;;;;25.23;17.07;;;;;;;;;;4968323;28;20207;-61
2022/12/14 00:36:21;;;;;;;30.50;18.87;;;;;;;;;;4976084;28;20633;-60
2022/12/14 00:38:48;;;;;;;29.50;18.80;;;;;;;;;;4970947;28;20215;-60
2022/12/14 00:41:15;;;;;;;31.93;18.13;;;;;;;;;;4966145;28;20271;-61
2022/12/14 00:43:43;;;;;;;24.20;16.63;;;;;;;;;;4965135;28;22267;-59
2022/12/14 00:46:10;;;;;;;29.17;17.93;;;;;;;;;;4961962;28;20611;-61
2022/12/14 00:48:38;;;;;;;29.27;18.47;;;;;;;;;;4967642;28;20220;-60
2022/12/14 00:51:05;;;;;;;30.93;18.23;;;;;;;;;;4964481;28;20283;-59
2022/12/14 00:53:32;;;;;;;27.23;17.10;;;;;;;;;;4967151;28;20236;-60
2022/12/14 00:56:05;;;;;;;29.50;19.17;;;;;;;;;;4967901;28;20227;-59
2022/12/14 00:58:32;;;;;;;26.67;18.23;;;;;;;;;;4967365;28;20212;-60
2022/12/14 01:01:04;;;;;;;34.03;22.50;;;;;;;;;;4963949;28;20821;-59
2022/12/14 01:03:32;;;;;;;28.47;18.47;;;;;;;;;;4966880;28;20212;-60
2022/12/14 01:06:01;;;;;;;30.63;19.00;;;;;;;;;;4959794;28;20223;-61
2022/12/14 01:08:34;;;;;;;28.37;18.07;;;;;;;;;;4955714;28;20303;-62
2022/12/14 01:11:06;;;;;;;28.70;18.13;;;;;;;;;;4966866;28;20233;-62
2022/12/14 01:13:34;;;;;;;29.77;18.73;;;;;;;;;;4961635;28;20219;-59
2022/12/14 01:16:02;;;;;;;30.13;19.00;;;;;;;;;;4957795;28;20316;-61
2022/12/14 01:18:32;;;;;;;29.33;17.97;;;;;;;;;;4965082;28;20211;-61
2022/12/14 01:21:07;;;;;;;28.50;18.43;;;;;;;;;;4964602;28;20236;-60
2022/12/14 01:23:34;;;;;;;34.47;19.93;;;;;;;;;;4967548;28;20287;-60
2022/12/14 01:26:02;;;;;;;33.23;19.07;;;;;;;;;;4964457;28;20208;-62
2022/12/14 01:28:30;;;;;;;29.43;18.17;;;;;;;;;;4967359;28;20216;-60
2022/12/14 01:30:57;;;;;;;30.37;17.83;;;;;;;;;;4975257;28;20309;-60
2022/12/14 01:33:25;;;;;;;34.57;19.00;;;;;;;;;;4963904;28;20220;-61
2022/12/14 01:35:52;;;;;;;30.63;19.00;;;;;;;;;;4983015;28;20831;-61
2022/12/14 01:38:20;;;;;;;31.30;18.57;;;;;;;;;;4964413;28;20240;-60
2022/12/14 01:40:47;;;;;;;35.07;19.30;;;;;;;;;;4965637;28;20319;-61
2022/12/14 01:43:14;;;;;;;32.40;19.57;;;;;;;;;;4961494;28;20204;-59
2022/12/14 01:45:42;;;;;;;30.30;18.90;;;;;;;;;;4964575;28;20254;-60
2022/12/14 01:48:11;;;;;;;33.17;18.87;;;;;;;;;;4962768;28;20275;-60
2022/12/14 01:50:41;;;;;;;33.63;19.30;;;;;;;;;;4957743;28;20306;-60
2022/12/14 01:53:15;;;;;;;33.13;19.40;;;;;;;;;;4973011;28;20699;-61
2022/12/14 01:55:48;;;;;;;30.67;19.63;;;;;;;;;;4965572;28;20318;-61
2022/12/14 01:58:15;;;;;;;30.67;18.67;;;;;;;;;;4966587;28;20234;-61
2022/12/14 02:00:43;;;;;;;34.23;20.00;;;;;;;;;;4966646;28;20240;-61
2022/12/14 02:03:15;;;;;;;30.03;19.40;;;;;;;;;;4964113;28;20234;-61
2022/12/14 02:05:45;;;;;;;36.73;21.00;;;;;;;;;;4956373;28;20236;-61
2022/12/14 02:08:13;;;;;;;37.60;20.97;;;;;;;;;;4963368;28;20278;-60
2022/12/14 02:10:40;;;;;;;32.97;20.37;;;;;;;;;;4958725;28;20710;-60
2022/12/14 02:13:10;;;;;;;33.70;20.33;;;;;;;;;;4959928;28;20236;-60
2022/12/14 02:15:38;;;;;;;33.43;21.03;;;;;;;;;;4962833;28;20791;-61
2022/12/14 02:18:07;;;;;;;40.37;22.50;;;;;;;;;;4963192;28;20260;-61
2022/12/14 02:21:01;;;;;;;36.00;22.47;;;;;;;;;;4959822;28;20315;-60
2022/12/14 02:23:31;;;;;;;36.20;21.33;;;;;;;;;;4929992;28;20241;-61
2022/12/14 02:26:17;;;;;;;41.20;22.63;;;;;;;;;;4951302;28;20241;-61
2022/12/14 02:28:45;;;;;;;38.00;23.10;;;;;;;;;;4951161;28;20314;-61
2022/12/14 02:31:12;;;;;;;34.63;20.93;;;;;;;;;;4948624;28;20225;-62
2022/12/14 02:33:51;;;;;;;39.47;22.00;;;;;;;;;;4950591;28;20227;-62
2022/12/14 02:36:24;;;;;;;37.80;21.87;;;;;;;;;;4950613;28;20326;-61
2022/12/14 02:38:52;;;;;;;36.40;21.87;;;;;;;;;;4951731;28;20612;-60
2022/12/14 02:41:37;;;;;;;40.40;22.47;;;;;;;;;;4948329;28;20263;-60
2022/12/14 02:44:37;;;;;;;33.53;21.47;;;;;;;;;;4950107;28;20283;-61
2022/12/14 02:47:27;;;;;;;38.77;22.23;;;;;;;;;;4917556;28;20303;-62
2022/12/14 02:50:05;;;;;;;33.80;21.60;;;;;;;;;;4903900;28;20250;-61
2022/12/14 02:52:32;;;;;;;38.03;23.20;;;;;;;;;;4944836;28;20242;-60
2022/12/14 02:55:28;;;;;;;41.23;23.73;;;;;;;;;;4952282;28;20227;-62
2022/12/14 02:58:08;;;;;;;38.73;23.03;;;;;;;;;;4927459;28;20264;-62
2022/12/14 03:00:36;;;;;;;44.17;23.53;;;;;;;;;;4951001;28;20834;-61
2022/12/14 03:03:04;;;;;;;35.97;22.27;;;;;;;;;;4950429;28;20211;-62
2022/12/14 03:05:32;;;;;;;39.30;23.27;;;;;;;;;;4952024;28;20216;-62
2022/12/14 03:08:02;;;;;;;36.73;23.73;;;;;;;;;;4954027;28;20279;-60
2022/12/14 03:10:43;;;;;;;41.60;24.07;;;;;;;;;;4953702;28;20242;-59
2022/12/14 03:13:23;;;;;;;34.27;21.60;;;;;;;;;;4949666;28;20310;-61
2022/12/14 03:16:07;;;;;;;40.70;23.10;;;;;;;;;;4952385;28;20795;-59
2022/12/14 03:18:37;;;;;;;40.20;23.87;;;;;;;;;;4950666;28;20213;-61
2022/12/14 03:21:07;;;;;;;35.77;22.37;;;;;;;;;;4954320;28;20279;-60
2022/12/14 03:23:36;;;;;;;36.97;23.73;;;;;;;;;;4950631;28;20336;-60
2022/12/14 03:26:04;;;;;;;38.63;22.97;;;;;;;;;;4953375;28;20203;-59
2022/12/14 03:28:34;;;;;;;36.93;22.17;;;;;;;;;;4946386;28;20232;-60
2022/12/14 03:31:06;;;;;;;32.67;20.37;;;;;;;;;;4950172;28;20307;-61
2022/12/14 03:33:36;;;;;;;37.00;23.03;;;;;;;;;;4950439;28;20204;-61
2022/12/14 03:36:06;;;;;;;34.57;20.60;;;;;;;;;;4947420;28;20314;-61
2022/12/14 03:38:37;;;;;;;34.33;21.50;;;;;;;;;;4948007;28;20637;-62
2022/12/14 03:41:43;;;;;;;37.80;22.87;;;;;;;;;;4952058;28;20240;-61
2022/12/14 03:44:16;;;;;;;45.30;24.80;;;;;;;;;;4880172;29;20199;-60
2022/12/14 03:46:57;;;;;;;39.50;22.80;;;;;;;;;;4913078;28;20303;-59
2022/12/14 03:49:24;;;;;;;38.23;23.10;;;;;;;;;;4954116;28;20236;-62
2022/12/14 03:52:01;;;;;;;42.63;24.00;;;;;;;;;;4947550;28;20328;-61
2022/12/14 03:54:39;;;;;;;40.93;23.40;;;;;;;;;;4953698;28;20203;-61
2022/12/14 03:57:11;;;;;;;38.90;22.83;;;;;;;;;;4960181;28;20239;-60
2022/12/14 03:59:59;;;;;;;38.77;24.37;;;;;;;;;;4975300;28;20296;-60
2022/12/14 04:02:32;;;;;;;39.63;23.93;;;;;;;;;;4942769;28;20335;-60
2022/12/14 04:05:14;;;;;;;42.13;25.40;;;;;;;;;;4957944;28;20819;-61
2022/12/14 04:08:00;;;;;;;44.33;24.43;;;;;;;;;;4960639;28;20293;-61
2022/12/14 04:19:06;;;;;;;41.37;24.53;;;;;;;;;;4948054;28;20213;-61
2022/12/14 04:21:48;;;;;;;42.93;25.37;;;;;;;;;;4948253;28;20321;-60
2022/12/14 04:27:16;;;;;;;39.23;24.87;;;;;;;;;;4950398;28;20212;-62
2022/12/14 04:29:59;;;;;;;39.40;24.73;;;;;;;;;;4945412;28;20249;-60
2022/12/14 04:32:45;;;;;;;41.60;25.03;;;;;;;;;;4951551;28;20239;-61
2022/12/14 04:35:31;;;;;;;46.07;25.33;;;;;;;;;;4957652;28;20316;-61
2022/12/14 04:38:18;;;;;;;41.27;25.80;;;;;;;;;;4946390;28;20237;-60
2022/12/14 04:40:49;;;;;;;41.10;24.47;;;;;;;;;;4950035;28;20246;-59
2022/12/14 04:43:19;;;;;;;40.03;24.90;;;;;;;;;;4950593;28;20299;-60
2022/12/14 04:45:55;;;;;;;40.83;25.40;;;;;;;;;;4951531;28;20223;-61
2022/12/14 04:48:25;;;;;;;43.37;25.77;;;;;;;;;;4950659;28;20237;-60
2022/12/14 04:51:00;;;;;;;40.73;24.60;;;;;;;;;;4949642;28;20774;-61
2022/12/14 04:53:30;;;;;;;44.63;25.87;;;;;;;;;;4984576;28;20830;-60
2022/12/14 04:56:10;;;;;;;46.60;26.40;;;;;;;;;;4947847;28;21321;-60
2022/12/14 04:58:38;;;;;;;46.37;25.87;;;;;;;;;;4944032;28;20215;-59
2022/12/14 05:01:11;;;;;;;47.57;27.00;;;;;;;;;;4951946;28;20286;-59
2022/12/14 05:04:02;;;;;;;48.97;28.00;;;;;;;;;;4948871;28;20708;-60
2022/12/14 05:06:52;;;;;;;48.63;27.40;;;;;;;;;;4944959;28;20216;-60
2022/12/14 05:09:33;;;;;;;52.13;28.70;;;;;;;;;;4946710;28;20220;-60
2022/12/14 05:12:07;;;;;;;49.17;27.93;;;;;;;;;;4948286;28;20233;-62
2022/12/14 05:14:37;;;;;;;49.73;28.73;;;;;;;;;;4943861;28;20209;-60
2022/12/14 05:17:05;;;;;;;56.43;30.57;;;;;;;;;;4960543;28;20318;-60
2022/12/14 05:19:36;;;;;;;57.47;31.27;;;;;;;;;;4948591;28;20257;-60
2022/12/14 05:22:07;;;;;;;63.23;32.33;;;;;;;;;;4948974;28;20782;-60
2022/12/14 05:24:35;;;;;;;53.43;30.13;;;;;;;;;;4948315;28;20231;-60
2022/12/14 05:27:02;;;;;;;53.80;28.80;;;;;;;;;;4944934;28;20841;-60
2022/12/14 05:29:30;;;;;;;52.37;28.00;;;;;;;;;;4951337;28;20843;-59
2022/12/14 05:31:57;;;;;;;54.60;29.30;;;;;;;;;;4959762;28;20322;-59
2022/12/14 05:34:25;;;;;;;54.73;28.93;;;;;;;;;;4951265;28;20231;-60
2022/12/14 05:36:52;;;;;;;53.83;28.00;;;;;;;;;;4949783;28;20236;-62
2022/12/14 05:39:20;;;;;;;51.27;28.67;;;;;;;;;;4952317;28;20220;-60
2022/12/14 05:41:47;;;;;;;65.67;33.50;;;;;;;;;;4945169;28;20228;-60
2022/12/14 05:44:14;;;;;;;62.07;33.67;;;;;;;;;;4951525;28;20235;-62
2022/12/14 05:46:42;;;;;;;59.67;36.17;;;;;;;;;;4950115;28;20274;-60
2022/12/14 05:49:10;;;;;;;50.90;30.40;;;;;;;;;;4945076;28;20208;-61
2022/12/14 05:51:38;;;;;;;60.37;32.63;;;;;;;;;;4946793;28;20255;-59
2022/12/14 05:54:05;;;;;;;63.93;32.67;;;;;;;;;;4948648;28;20220;-60
2022/12/14 05:56:33;;;;;;;53.23;29.13;;;;;;;;;;4955212;28;20227;-59
2022/12/14 05:59:01;;;;;;;53.13;28.90;;;;;;;;;;4959801;28;20208;-60
2022/12/14 06:01:28;;;;;;;58.63;29.17;;;;;;;;;;4961068;28;20291;-60
2022/12/14 06:03:56;;;;;;;50.53;28.63;;;;;;;;;;4958810;28;20223;-62
2022/12/14 06:06:24;;;;;;;56.57;29.13;;;;;;;;;;4955311;28;20216;-62
2022/12/14 06:08:51;;;;;;;57.37;29.87;;;;;;;;;;4960017;28;20307;-59
2022/12/14 06:11:22;;;;;;;54.80;28.80;;;;;;;;;;4957994;28;20641;-59
2022/12/14 06:13:50;;;;;;;57.57;28.90;;;;;;;;;;4957035;28;20209;-60
2022/12/14 06:16:17;;;;;;;80.57;43.77;;;;;;;;;;4972268;28;20274;-60
2022/12/14 06:18:55;;;;;;;56.33;31.70;;;;;;;;;;4947954;28;20212;-60
2022/12/14 06:21:24;;;;;;;60.17;30.27;;;;;;;;;;4949589;28;20320;-61
2022/12/14 06:23:53;;;;;;;54.20;29.03;;;;;;;;;;4952523;28;20244;-61
2022/12/14 06:26:21;;;;;;;54.03;28.03;;;;;;;;;;4951970;28;20669;-61
2022/12/14 06:28:48;;;;;;;54.17;30.10;;;;;;;;;;4956655;28;20228;-61
2022/12/14 06:31:23;;;;;;;53.73;29.57;;;;;;;;;;4964104;28;21084;-61
2022/12/14 06:33:52;;;;;;;52.43;28.93;;;;;;;;;;4951607;28;20217;-61
2022/12/14 06:36:22;;;;;;;52.67;28.97;;;;;;;;;;4947593;28;20306;-61
2022/12/14 06:38:50;;;;;;;53.03;29.03;;;;;;;;;;4946809;28;20220;-60
2022/12/14 06:41:18;;;;;;;53.50;28.83;;;;;;;;;;4948904;28;20225;-61
2022/12/14 06:43:46;;;;;;;52.83;29.73;;;;;;;;;;4950486;28;20756;-61
2022/12/14 06:46:17;;;;;;;54.60;28.93;;;;;;;;;;4954241;28;20208;-60
2022/12/14 06:48:53;;;;;;;49.93;28.13;;;;;;;;;;4950515;28;20251;-61
2022/12/14 06:51:22;;;;;;;48.93;27.67;;;;;;;;;;4950890;28;20229;-60
2022/12/14 06:53:52;;;;;;;49.77;27.83;;;;;;;;;;4953691;28;20299;-60
2022/12/14 06:56:20;;;;;;;46.40;27.53;;;;;;;;;;4963702;28;20610;-61
2022/12/14 06:58:47;;;;;;;48.37;27.30;;;;;;;;;;4955368;28;20263;-62
2022/12/14 07:01:17;;;;;;;49.23;28.17;;;;;;;;;;4956205;28;20652;-61
2022/12/14 07:03:49;;;;;;;50.07;27.63;;;;;;;;;;4953273;28;20271;-60
2022/12/14 07:06:17;;;;;;;53.83;28.30;;;;;;;;;;4952530;28;20308;-60
2022/12/14 07:08:44;;;;;;;53.60;29.67;;;;;;;;;;4945062;28;20217;-61
2022/12/14 07:11:13;;;;;;;55.53;28.93;;;;;;;;;;4956211;28;20256;-60
2022/12/14 07:13:41;;;;;;;54.10;29.97;;;;;;;;;;4936667;28;20356;-61
2022/12/14 07:16:10;;;;;;;60.07;30.93;;;;;;;;;;4947580;28;20324;-61
2022/12/14 07:18:38;;;;;;;59.43;31.80;;;;;;;;;;4945117;28;20209;-62
2022/12/14 07:21:08;;;;;;;57.33;31.80;;;;;;;;;;4948246;28;20256;-60
2022/12/14 07:23:36;;;;;;;59.97;31.53;;;;;;;;;;4946004;28;20209;-61
2022/12/14 07:26:08;;;;;;;67.70;33.37;;;;;;;;;;4948243;28;20223;-61
2022/12/14 07:28:36;;;;;;;69.53;34.17;;;;;;;;;;4939630;28;20244;-61
2022/12/14 07:31:06;;;;;;;66.37;34.40;;;;;;;;;;4944704;28;20746;-61
2022/12/14 07:33:34;;;;;;;79.70;37.43;;;;;;;;;;4945704;28;20461;-62
2022/12/14 07:36:20;;;;;;;89.30;41.07;;;;;;;;;;4944300;28;20324;-60
2022/12/14 07:38:50;;;;;;;86.77;38.43;;;;;;;;;;4946645;28;20244;-62
2022/12/14 07:41:21;;;;;;;73.50;37.63;;;;;;;;;;4948741;28;20291;-61
2022/12/14 07:43:50;;;;;;;67.23;33.47;;;;;;;;;;4941215;28;20217;-61
2022/12/14 07:46:19;;;;;;;60.33;32.90;;;;;;;;;;4966019;28;20340;-61
2022/12/14 07:48:47;;;;;;;63.37;32.87;;;;;;;;;;4939119;28;20213;-61
2022/12/14 07:51:16;;;;;;;61.33;31.73;;;;;;;;;;4944982;28;20289;-62
2022/12/14 07:53:46;;;;;;;59.90;31.17;;;;;;;;;;4942638;28;20925;-63
2022/12/14 07:56:15;;;;;;;61.10;32.77;;;;;;;;;;4951386;28;20229;-61
2022/12/14 07:58:42;;;;;;;58.50;33.70;;;;;;;;;;4955258;28;20223;-62
2022/12/14 08:01:26;;;;;;;63.17;32.13;;;;;;;;;;4959587;28;20261;-62
2022/12/14 08:03:55;;;;;;;54.07;29.97;;;;;;;;;;4961409;28;20209;-62
2022/12/14 08:06:24;;;;;;;53.70;31.30;;;;;;;;;;4956945;28;21322;-61
2022/12/14 08:08:52;;;;;;;53.33;29.97;;;;;;;;;;4943362;28;20213;-62
2022/12/14 08:11:22;;;;;;;53.83;32.30;;;;;;;;;;4949717;28;20276;-61
2022/12/14 08:13:57;;;;;;;53.77;31.03;;;;;;;;;;4939517;28;20218;-59
2022/12/14 08:16:25;;;;;;;54.73;30.27;;;;;;;;;;4950255;28;20246;-60
2022/12/14 08:18:53;;;;;;;54.40;31.37;;;;;;;;;;4948531;28;20214;-60
2022/12/14 08:21:21;;;;;;;51.70;32.07;;;;;;;;;;4951321;28;20284;-60
2022/12/14 08:23:49;;;;;;;52.90;31.47;;;;;;;;;;4955515;28;20225;-62
2022/12/14 08:26:17;;;;;;;52.57;30.90;;;;;;;;;;4955150;28;21043;-62
2022/12/14 08:28:45;;;;;;;49.80;30.67;;;;;;;;;;4951524;28;20209;-62
2022/12/14 08:31:15;;;;;;;52.50;31.30;;;;;;;;;;4954212;28;20237;-62
2022/12/14 08:33:43;;;;;;;56.83;32.63;;;;;;;;;;4951210;28;20296;-62
2022/12/14 08:36:12;;;;;;;55.47;32.40;;;;;;;;;;4952208;28;20300;-62
2022/12/14 08:38:40;;;;;;;51.20;30.57;;;;;;;;;;4965095;28;20626;-61
2022/12/14 08:41:08;;;;;;;51.20;30.57;;;;;;;;;;4944971;28;20418;-61
2022/12/14 08:43:36;;;;;;;51.23;30.57;;;;;;;;;;4950181;28;20260;-61
2022/12/14 08:46:03;;;;;;;51.37;30.63;;;;;;;;;;4951823;28;20232;-61
2022/12/14 08:48:31;;;;;;;50.93;30.43;;;;;;;;;;4945918;28;20202;-61
2022/12/14 08:51:06;;;;;;;51.57;29.83;;;;;;;;;;4949680;28;20253;-61
2022/12/14 08:53:34;;;;;;;57.30;31.80;;;;;;;;;;4953961;28;20654;-61
2022/12/14 08:56:05;;;;;;;65.53;35.80;;;;;;;;;;4953152;28;20205;-60
2022/12/14 08:58:33;;;;;;;62.57;35.00;;;;;;;;;;4952438;28;20296;-60
2022/12/14 09:01:05;;;;;;;55.10;31.97;;;;;;;;;;4957545;28;21009;-60
2022/12/14 09:03:33;;;;;;;52.83;31.63;;;;;;;;;;4954650;28;20284;-61
2022/12/14 09:06:04;;;;;;;55.73;32.97;;;;;;;;;;4956416;28;20209;-62
2022/12/14 09:08:31;;;;;;;53.00;31.17;;;;;;;;;;4941183;28;20218;-61
2022/12/14 09:10:59;;;;;;;53.60;31.37;;;;;;;;;;4947453;28;20317;-62
2022/12/14 09:13:27;;;;;;;57.83;32.30;;;;;;;;;;4963194;28;20253;-62
2022/12/14 09:15:55;;;;;;;54.03;30.73;;;;;;;;;;4959702;28;20219;-62
2022/12/14 09:18:23;;;;;;;50.93;31.17;;;;;;;;;;4954693;28;20241;-62
2022/12/14 09:20:53;;;;;;;46.43;29.03;;;;;;;;;;4960087;28;20325;-62
2022/12/14 09:23:21;;;;;;;55.20;32.80;;;;;;;;;;4946720;28;20215;-61
2022/12/14 09:26:04;;;;;;;52.93;31.93;;;;;;;;;;4957618;28;20206;-62
2022/12/14 09:28:33;;;;;;;52.27;29.77;;;;;;;;;;4957979;28;23934;-59
2022/12/14 09:31:02;;;;;;;52.37;31.07;;;;;;;;;;4954783;28;20307;-61
2022/12/14 09:33:30;;;;;;;61.73;36.23;;;;;;;;;;4956066;28;20748;-60
2022/12/14 09:36:00;;;;;;;51.23;31.93;;;;;;;;;;4945546;28;20209;-63
2022/12/14 09:38:29;;;;;;;52.47;30.60;;;;;;;;;;4953324;28;20755;-62
2022/12/14 09:40:57;;;;;;;52.97;31.97;;;;;;;;;;4950292;28;20330;-62
2022/12/14 09:43:45;;;;;;;55.07;33.17;;;;;;;;;;4957074;28;20208;-61
2022/12/14 09:46:18;;;;;;;49.83;29.13;;;;;;;;;;4952930;28;20278;-59
2022/12/14 09:48:47;;;;;;;47.77;29.10;;;;;;;;;;4951635;28;20217;-61
2022/12/14 09:51:19;;;;;;;43.80;27.67;;;;;;;;;;4956029;28;20375;-61
2022/12/14 09:53:49;;;;;;;43.80;28.50;;;;;;;;;;4952260;28;20222;-60
2022/12/14 09:56:18;;;;;;;47.83;28.77;;;;;;;;;;4960769;28;20583;-61
2022/12/14 09:58:52;;;;;;;45.57;28.60;;;;;;;;;;4965969;28;20231;-62
2022/12/14 10:01:22;;;;;;;44.63;28.10;;;;;;;;;;4968834;28;20227;-60
2022/12/14 10:03:57;;;;;;;47.03;28.57;;;;;;;;;;4962934;28;20213;-61
2022/12/14 10:06:31;;;;;;;45.30;29.20;;;;;;;;;;4960684;28;20264;-63
2022/12/14 10:09:17;;;;;;;45.90;29.27;;;;;;;;;;4958872;28;20196;-62
2022/12/14 10:12:07;;;;;;;49.23;29.60;;;;;;;;;;4964510;28;20233;-62
2022/12/14 10:14:53;;;;;;;47.67;28.13;;;;;;;;;;4959472;28;20256;-60
2022/12/14 10:17:30;;;;;;;45.57;28.77;;;;;;;;;;4965887;28;20263;-60
2022/12/14 10:20:03;;;;;;;46.07;27.90;;;;;;;;;;4954436;28;23287;-60
2022/12/14 10:22:51;;;;;;;49.53;29.10;;;;;;;;;;4955085;28;20299;-59
2022/12/14 10:25:26;;;;;;;44.13;27.57;;;;;;;;;;4967900;28;20207;-60
2022/12/14 10:28:05;;;;;;;44.17;27.13;;;;;;;;;;4953203;28;20663;-61
2022/12/14 10:30:39;;;;;;;39.67;25.80;;;;;;;;;;4952500;28;20610;-61
2022/12/14 10:33:16;;;;;;;41.20;26.83;;;;;;;;;;4952099;28;20795;-59
2022/12/14 10:35:54;;;;;;;42.37;26.27;;;;;;;;;;4949244;28;20355;-61
2022/12/14 10:38:26;;;;;;;41.93;26.30;;;;;;;;;;4954341;28;20288;-60
2022/12/14 10:40:59;;;;;;;45.53;27.93;;;;;;;;;;4953398;28;20299;-60
2022/12/14 10:43:39;;;;;;;40.80;25.50;;;;;;;;;;4953477;28;20206;-61
2022/12/14 10:46:07;;;;;;;34.90;23.33;;;;;;;;;;4950604;28;20209;-61
2022/12/14 10:48:49;;;;;;;35.47;22.70;;;;;;;;;;4951189;28;20213;-62
2022/12/14 10:51:30;;;;;;;34.77;22.53;;;;;;;;;;4948802;28;20245;-63
2022/12/14 10:54:09;;;;;;;34.53;21.47;;;;;;;;;;4949919;28;20654;-62
2022/12/14 10:56:39;;;;;;;34.27;21.63;;;;;;;;;;4950090;28;20658;-62
2022/12/14 10:59:20;;;;;;;34.23;22.60;;;;;;;;;;4953379;28;20200;-62
2022/12/14 11:02:06;;;;;;;34.77;21.80;;;;;;;;;;4953317;28;20332;-62
2022/12/14 11:04:44;;;;;;;32.60;21.77;;;;;;;;;;4950411;28;20268;-62
2022/12/14 11:07:12;;;;;;;33.03;22.47;;;;;;;;;;4957010;28;20300;-62
2022/12/14 11:09:39;;;;;;;35.47;23.73;;;;;;;;;;4952852;28;20304;-62
2022/12/14 11:12:13;;;;;;;37.67;23.07;;;;;;;;;;4953197;28;20233;-61
2022/12/14 11:14:51;;;;;;;37.10;23.77;;;;;;;;;;4956242;28;20346;-60
2022/12/14 11:17:36;;;;;;;37.70;23.20;;;;;;;;;;4954930;28;20291;-61
2022/12/14 11:20:06;;;;;;;33.70;21.27;;;;;;;;;;4956574;28;20768;-61
2022/12/14 11:22:53;;;;;;;37.03;24.10;;;;;;;;;;4956946;28;20676;-60
2022/12/14 11:25:40;;;;;;;39.77;24.40;;;;;;;;;;4955328;28;20213;-61
2022/12/14 11:28:22;;;;;;;37.27;23.10;;;;;;;;;;4956572;28;20248;-63
2022/12/14 11:30:54;;;;;;;40.03;24.60;;;;;;;;;;4945678;28;20370;-60
2022/12/14 11:33:22;;;;;;;36.80;24.90;;;;;;;;;;4951315;28;20224;-61
2022/12/14 11:35:53;;;;;;;41.00;25.30;;;;;;;;;;4949701;28;20224;-61
2022/12/14 11:38:21;;;;;;;45.87;25.50;;;;;;;;;;4946681;28;20235;-61
2022/12/14 11:40:49;;;;;;;38.60;24.60;;;;;;;;;;4944109;28;20323;-61
2022/12/14 11:43:28;;;;;;;36.50;23.83;;;;;;;;;;4947800;28;20232;-60
2022/12/14 11:45:56;;;;;;;37.90;23.87;;;;;;;;;;4952598;28;20319;-62
2022/12/14 11:48:26;;;;;;;37.47;23.97;;;;;;;;;;4944877;28;20685;-63
2022/12/14 11:50:55;;;;;;;35.47;22.83;;;;;;;;;;4948185;28;20675;-62
2022/12/14 11:53:23;;;;;;;37.03;23.83;;;;;;;;;;4944178;28;20224;-60
2022/12/14 11:55:54;;;;;;;35.87;23.43;;;;;;;;;;4956984;28;20252;-62
2022/12/14 11:58:23;;;;;;;35.00;23.80;;;;;;;;;;4954581;28;20260;-61
2022/12/14 12:01:03;;;;;;;35.00;23.57;;;;;;;;;;4955526;28;20316;-60
2022/12/14 12:03:35;;;;;;;34.13;22.50;;;;;;;;;;4962339;28;20256;-61
2022/12/14 12:06:07;;;;;;;39.00;25.77;;;;;;;;;;4955243;28;20204;-63
2022/12/14 12:08:36;;;;;;;38.13;25.50;;;;;;;;;;4954481;28;20276;-62
2022/12/14 12:11:05;;;;;;;34.83;23.53;;;;;;;;;;4956612;28;20228;-61
2022/12/14 12:13:40;;;;;;;36.47;22.73;;;;;;;;;;4955174;28;20216;-62
2022/12/14 12:16:11;;;;;;;31.57;21.73;;;;;;;;;;4955023;28;21183;-62
2022/12/14 12:18:42;;;;;;;34.87;23.60;;;;;;;;;;4953520;28;20230;-62
2022/12/14 12:21:12;;;;;;;40.20;26.33;;;;;;;;;;4948798;28;20480;-61
2022/12/14 12:23:46;;;;;;;37.10;22.90;;;;;;;;;;4951765;28;20300;-60
2022/12/14 12:26:16;;;;;;;32.80;22.03;;;;;;;;;;4949149;28;20363;-61
2022/12/14 12:28:47;;;;;;;33.87;21.53;;;;;;;;;;4954048;28;20259;-61
2022/12/14 12:31:19;;;;;;;32.93;21.77;;;;;;;;;;4950844;28;20727;-61
2022/12/14 12:33:54;;;;;;;33.83;22.73;;;;;;;;;;4953665;28;20216;-62
2022/12/14 12:36:22;;;;;;;33.77;21.83;;;;;;;;;;4957020;28;20224;-61
2022/12/14 12:39:05;;;;;;;32.00;21.60;;;;;;;;;;4955270;28;20743;-61
2022/12/14 12:41:35;;;;;;;31.60;20.80;;;;;;;;;;4948918;28;20315;-62
2022/12/14 12:44:15;;;;;;;32.33;21.23;;;;;;;;;;4961162;28;20212;-61
2022/12/14 12:46:49;;;;;;;32.97;21.37;;;;;;;;;;4955971;28;20204;-60
2022/12/14 12:49:37;;;;;;;38.63;23.33;;;;;;;;;;4945732;28;20209;-63
2022/12/14 12:52:14;;;;;;;34.97;23.57;;;;;;;;;;4938573;28;20291;-60
2022/12/14 12:55:01;;;;;;;42.40;27.77;;;;;;;;;;4953166;28;20220;-61
2022/12/14 12:57:33;;;;;;;50.77;32.83;;;;;;;;;;4955745;28;20245;-62
2022/12/14 13:00:01;;;;;;;42.30;26.57;;;;;;;;;;4954322;28;20817;-60
2022/12/14 13:02:34;;;;;;;34.53;23.90;;;;;;;;;;4959463;28;20664;-59
2022/12/14 13:05:04;;;;;;;36.67;24.20;;;;;;;;;;4954404;28;20515;-60
2022/12/14 13:07:54;;;;;;;33.83;22.57;;;;;;;;;;4958418;28;20213;-61
2022/12/14 13:10:23;;;;;;;35.63;22.37;;;;;;;;;;4952421;28;20731;-62
2022/12/14 13:12:56;;;;;;;32.73;22.20;;;;;;;;;;4959236;28;20335;-61
2022/12/14 13:15:26;;;;;;;32.93;21.80;;;;;;;;;;4956706;28;20684;-63
2022/12/14 13:17:56;;;;;;;33.00;21.67;;;;;;;;;;4953803;28;20795;-62
2022/12/14 13:20:25;;;;;;;33.40;21.93;;;;;;;;;;4956720;28;20981;-62
2022/12/14 13:22:53;;;;;;;32.43;21.83;;;;;;;;;;4952419;28;20804;-62
2022/12/14 13:25:25;;;;;;;31.53;21.37;;;;;;;;;;4955509;28;20217;-62
2022/12/14 13:27:56;;;;;;;40.43;25.57;;;;;;;;;;4951896;28;20217;-63
2022/12/14 13:30:34;;;;;;;38.50;24.53;;;;;;;;;;4951299;28;20259;-61
2022/12/14 13:33:09;;;;;;;38.87;25.47;;;;;;;;;;4957389;28;20216;-62
2022/12/14 13:36:01;;;;;;;40.97;25.43;;;;;;;;;;4955118;28;20216;-61
2022/12/14 13:38:34;;;;;;;37.53;25.20;;;;;;;;;;4954242;28;20688;-61
2022/12/14 13:41:12;;;;;;;41.97;28.90;;;;;;;;;;4954330;28;20319;-61
2022/12/14 13:43:45;;;;;;;40.53;26.13;;;;;;;;;;4955598;28;20300;-61
2022/12/14 13:46:19;;;;;;;37.90;24.37;;;;;;;;;;4954347;28;20829;-62
2022/12/14 13:48:49;;;;;;;36.87;23.50;;;;;;;;;;4951908;28;20330;-62
2022/12/14 13:51:22;;;;;;;41.13;26.27;;;;;;;;;;4979679;28;20312;-62
2022/12/14 13:53:53;;;;;;;46.67;28.17;;;;;;;;;;4951906;28;20361;-62
2022/12/14 13:56:23;;;;;;;66.23;39.97;;;;;;;;;;4956464;28;20209;-62
2022/12/14 13:59:00;;;;;;;39.90;23.17;;;;;;;;;;4960555;28;20289;-61
2022/12/14 14:01:30;;;;;;;37.57;23.57;;;;;;;;;;4961761;28;20271;-62
2022/12/14 14:04:10;;;;;;;41.13;25.07;;;;;;;;;;4965778;28;20553;-61
2022/12/14 14:06:37;;;;;;;34.43;23.17;;;;;;;;;;4949127;28;20688;-63
2022/12/14 14:09:23;;;;;;;34.90;23.40;;;;;;;;;;4960075;28;20213;-62
2022/12/14 14:11:58;;;;;;;37.03;23.33;;;;;;;;;;4959800;28;20295;-61
2022/12/14 14:14:44;;;;;;;38.43;23.90;;;;;;;;;;4965331;28;20212;-62
2022/12/14 14:17:21;;;;;;;42.40;27.07;;;;;;;;;;4956346;28;20201;-60
2022/12/14 14:19:51;;;;;;;36.43;21.90;;;;;;;;;;4951725;28;20292;-60
2022/12/14 14:22:29;;;;;;;33.40;21.33;;;;;;;;;;4950420;28;20977;-61
2022/12/14 14:24:58;;;;;;;33.40;21.77;;;;;;;;;;4947835;28;20209;-60
2022/12/14 14:27:34;;;;;;;36.63;22.40;;;;;;;;;;4955246;28;20213;-61
2022/12/14 14:30:03;;;;;;;35.83;21.73;;;;;;;;;;4948033;28;20249;-62
2022/12/14 14:32:41;;;;;;;33.53;21.60;;;;;;;;;;4948885;28;20212;-62
2022/12/14 14:35:27;;;;;;;36.17;22.73;;;;;;;;;;4948934;28;20226;-62
2022/12/14 14:37:57;;;;;;;35.30;22.67;;;;;;;;;;4954835;28;20275;-62
2022/12/14 14:40:26;;;;;;;40.17;25.23;;;;;;;;;;4948598;28;20247;-60
2022/12/14 14:43:25;;;;;;;48.70;30.23;;;;;;;;;;4950173;28;20205;-61
2022/12/14 14:45:54;;;;;;;42.63;26.83;;;;;;;;;;4952292;28;20292;-62
2022/12/14 14:48:26;;;;;;;41.57;23.80;;;;;;;;;;4950716;28;20213;-62
2022/12/14 14:51:02;;;;;;;35.40;21.03;;;;;;;;;;4948557;28;20248;-62
2022/12/14 14:53:31;;;;;;;30.00;19.47;;;;;;;;;;4950770;28;20713;-63
2022/12/14 14:56:00;;;;;;;31.20;19.83;;;;;;;;;;4953870;28;20255;-62
2022/12/14 14:58:33;;;;;;;26.20;16.37;;;;;;;;;;4955813;28;20225;-63